Indianapolis, Indiana
Traffic Map
Current Weather Conditions
Indianapolis, Indiana
Broken Clouds
Broken Clouds
29°
Feels Like: 24°
Wind Chill: 24° Ceiling: 16000
Heat Index: 29° Visibility: 10mi
Dew Point: 11° Wind: 5mph
Humidity: 47% Direction: 80° (E)
Pressure: 30.04in Gusts: 0mph
Raw Report DataKIND 141854Z 08004KT 10SM FEW040 BKN160 BKN200 M02/M12 A3004 RMK AO2 SLP182 T10171117
Traffic Incident Summary
Active as of:
Severity:
Category:
InformationThere was an issue retrieving the traffic information for this location. Please try a different location or try again shortly.
Advertisements